Terminal Aerodrome Forecast
Issued by NWS

Home | Current Version | Previous Version | Text Only | Print | Product List | Glossary On
Versions: 1 2 3 4 5 6 7 8 9 10 11 12 13 14 15 16 17 18 19 20 21 22
411
FTUS44 KBMX 210537
TAFTCL
TAF
KTCL 210537Z 2106/2206 18008KT 4SM -SHRA BR SCT020 OVC035
      TEMPO 2106/2110 OVC015
     FM211000 17006KT 6SM BR OVC008
     FM211400 17009KT P6SM OVC015
     FM211800 18010KT P6SM OVC025
     FM212000 18010G16KT P6SM BKN040
     FM220000 16006KT P6SM OVC050=

USA.gov is the U.S. government's official web portal to all federal, state and local government web resources and services.